RÉSULTATS    Corrida Pédestre Internationale de Houilles - Édition du 30/12/2018


Vous pouvez changer la distance ici.

Vous pouvez changer la distance ici.

Classement PDF Général Classement PDF Alphabétique /results/<span class='glyphicon glyphicon-picture'></span> Classement Temps Officiel

381 participants - 340 Hommes - 41 Femmes
322 licenciés (85%) - 59 non-licenciés (15%)

Temps moyen : 00:34:45




Pos. Tps Réel Nom - Prénom Club Dossard Catégorie km/h Tps Officiel
1 00:27:25 WANDERS Julien SUISSE 1 SEM (1 / 196) 21.8 00:27:25
2 00:27:36 TSEGU Berehanu ETHIOPIE 5 ESM (1 / 35) 21.7 00:27:36
3 00:27:52 CHEMUTAI Albert OUGANDA 3 ESM (2 / 35) 21.5 00:27:53
4 00:27:57 ANDE Filmon ERYTHREE 8 ESM (3 / 35) 21.4 00:27:57
5 00:28:09 TEKLU Haftu ETHIOPIE 7 JUM (1 / 12) 21.3 00:28:10
6 00:28:09 KANGOGO Cornelius KENYA 2 SEM (2 / 196) 21.3 00:28:10
7 00:28:12 GRESSIER Jimmy US ATHLETIQUES DE LIEVIN* 32 ESM (4 / 35) 21.2 00:28:13
8 00:28:24 CARVALHO Florian ADIDAS RUNNERS PARIS 31 SEM (3 / 196) 21.1 00:28:25
9 00:28:30 KIFLE Yohans ERYTHREE 24 JUM (2 / 12) 21.0 00:28:31
10 00:28:38 KIPNGENO MIBEI Dominic KENYA 19 SEM (4 / 196) 20.9 00:28:39
11 00:28:43 TSEGAY Mehari ERYTHREE 9 ESM (5 / 35) 20.8 00:28:44
12 00:28:49 GRIFFITHS Dewi GRANDE BRETAGNE 18 SEM (5 / 196) 20.8 00:28:50
13 00:28:51 TRAYNOR Luke GRANDE BRETAGNE 17 SEM (6 / 196) 20.7 00:28:53
14 00:29:01 GIRMA Taye ETHIOPIE 4 JUM (3 / 12) 20.6 00:29:02
15 00:29:08 BEDRANI Djilali SA TOULOUSE UC 33 SEM (7 / 196) 20.6 00:29:08
16 00:29:15 CLEMENTS Kieran GRANDE BRETAGNE 15 SEM (8 / 196) 20.5 00:29:16
17 00:29:31 GRIFFITHS Josh GRANDE BRETAGNE 23 SEM (9 / 196) 20.3 00:29:32
18 00:29:41 BELHADJ Mehdi CA MONTREUIL 93 44 SEM (10 / 196) 20.2 00:29:42
19 00:29:45 BOUCHFAR Rahal MAROC 10 JUM (4 / 12) 20.1 00:29:45
20 00:29:52 DODE Sylvain FREE RUN A3 TOURS 153 SEM (11 / 196) 20.0 00:29:53
21 00:29:56 LE DEAN Geoffrey CA MONTREUIL 93 2510 SEM (12 / 196) 20.0 00:29:57
22 00:30:02 MISCHLER Baptiste UNITAS BRUMATH 37 ESM (6 / 35) 19.9 00:30:03
23 00:30:05 AUGUSTO Bastien KM42 367 ESM (7 / 35) 19.9 00:30:07
24 00:30:06 DAHMANI Samir MARTIGUES SPORTS ATHLE 41 SEM (13 / 196) 19.9 00:30:06
25 00:30:07 GHEBRESLASIE Merhawi S/L FRANCONVILLE 156 SEM (14 / 196) 19.9 00:30:08
    Page / 16 Dernière